SEBI

Registration No.

INH000000305

Ip Address Lookup

So far visitors:

customizable counter

TRIAL

TRIAL

SEND SMS FOR TRIAL

EQUITY - COMMODITY OR BOTH

TO

 09920033678

AND GET TRIAL

 

SEBI Registration No.: INH000000305 *****

* Commodity: 9500/month * Equity: 6000/month


* Gold Package: 7000 * Gold-Silver Package: 8100
*Crude-NG-Copper-Nickel Package: 6000


To See Past Performance, Click Here

For TRIAL / Registration,

click here

Past Performance >> Equity Tips
 
Search
 
Entry Start Date Entry End Date
Exit Start Date Exit End Date
Scrip Name Contract
Package
 

Packages: Precious Metals - Energy and Base Metals - Profit is calculated on basis of 1 lot per call

Package: Equity calls: Profit is calculated as follows:

1. If the scrip is in F & O then 1 lot is counted otherwise

2. Trade of Rs.1,50,000/- per call is counted.

 
Page: ( 1 2 3 4 5 6 7 8 9 10 11 12 13 14 15 16 17 18 19 20 21 22 23 24 25 26 27 28 29 30 31 32 33 34 35 36 37 38 39 40 41 42 43 44 45 46 47 48 49 50 51 52 53 54 55 56 57 58 59 60 61 62 63 64 65 66 67 68 69 70 71 72 73 74 75 76 77 78 79 80 81 82 83 84 85 86 87 88 89 90 91 92 93 94 95 96 97 98 99 100 101 102 103 104 105 106 107 108 109 110 ) [Current Page: 5]
Displaying 301 to 375   Calls
Entry Date Type Scrip Entry Price (Rs) T1
(Rs)
T2
(Rs)
T3
(Rs)
Stop Loss
(Rs)
Exit Date Exit Rate
(Rs)
Profit
(Rs)
 
09-01-19 Sell ADANI PORTS 378 374 370 366 382 10-01-19 382 -10000.00 More
09-01-19 Buy JSW STEEL 294 298 304 308 290 09-01-19 290 -6000.00 More
08-01-19 Buy LICHSGFIN 480 490 495 500 465 08-01-19 488 8800.00 More
08-01-19 Buy YES BANK 190 194 198 204 184 08-01-19 193 5250.00 More
07-01-19 Buy MARUTI 7370 7440 7500 7540 7299 08-01-19 7497 9525.00 More
04-01-19 Buy YES BANK 184 188 192 196 180 04-01-19 190 10500.00 More
04-01-19 Buy WOCKHARDT 505 515 520 525 495 04-01-19 513 7200.00 More
04-01-19 Sell BANK NIFTY 27150 27000 26950 26800 27221 04-01-19 27221 -2840.00 More
04-01-19 Sell Nifty 10710 10650 10640 10610 10762 04-01-19 10762 -7800.00 More
04-01-19 Sell LT 1400 1390 1380 1370 1415 04-01-19 1382 6750.00 More
04-01-19 Sell DIVIS LAB 1452 1430 1425 1410 1460 04-01-19 1460 -3200.00 More
03-01-19 Sell RELIANCE 1112 1100 1095 1090 1125 03-01-19 1102 5000.00 More
03-01-19 Buy LOVABLE 123 129 130 132 119 03-01-19 119 -6000.00 More
02-01-19 Sell BANK NIFTY 27425 27300 27200 27100 27550 02-01-19 27200 9000.00 More
02-01-19 Buy ESCORTS 720 730 735 740 712 02-01-19 712 -8800.00 More
02-01-19 Buy WOCKHARDT 530 540 545 550 515 02-01-19 515 -13500.00 More
01-01-19 Buy TATA MOTORS 174 178 182 188 168 03-01-19 168 -12000.00 More
31-12-18 Sell BAJAJ AUTO 2730 2710 2700 2690 2755 01-01-19 2737 -1750.00 More
31-12-18 Buy SIEMENS 1044 1058 1070 1075 1028 01-01-19 1050 3300.00 More
31-12-18 Buy GLENMARK 704 715 720 725 690 02-01-19 690 -14000.00 More
31-12-18 Buy YES BANK 183 188 192 198 178 01-01-19 186 5250.00 More
28-12-18 Buy BAJAJ FIN 6460 6550 6650 6750 6340 28-12-18 6560 12500.00 More
26-12-18 Buy LICHSGFIN 473 483 493 500 463 26-12-18 491 19800.00 More
26-12-18 Buy RELIANCE CAPITAL 210 218 222 228 204 27-12-18 216 9000.00 More
26-12-18 Sell HDFC BANK 2088 2068 2060 2050 2106 26-12-18 2106 -9000.00 More
26-12-18 Sell JSW STEEL 291 286 284 280 295 26-12-18 295 -12000.00 More
24-12-18 Sell ADANI PORTS 361 358 355 --- 365 24-12-18 365 -10000.00 More
24-12-18 Buy IBULLSHSGFIN 832 844 855 --- 822 24-12-18 822 -5000.00 More
21-12-18 Sell BANK NIFTY 27200 27050 27000 26900 27303 21-12-18 26900 12000.00 More
21-12-18 Buy BPCL 371 376 380 385 366 21-12-18 375 7200.00 More
21-12-18 Buy HPCL 246 252 255 258 240 21-12-18 252 9450.00 More
20-12-18 Buy BEL 90 94 96 98 86 21-12-18 93.80 18810.00 More
20-12-18 Sell SBI 296 290 285 280 302 21-12-18 296 0.00 More
20-12-18 Sell JUB FOOD 1366 1352 1342 1332 1380 20-12-18 1354 6000.00 More
19-12-18 Buy CG POWER 41 44 46 48 39 01-01-19 46 60000.00 More
18-12-18 Buy POWER GRID 196 202 208 214 190 21-12-18 198 8000.00 More
18-12-18 Buy SUN PHARMA 435 445 455 475 429 19-12-18 429 -6600.00 More
18-12-18 Buy WOCKHARDT 518 528 535 550 508 19-12-18 528 9000.00 More
18-12-18 Buy TATA MOTORS 175 180 185 190 170 21-12-18 178.50 5250.00 More
18-12-18 Buy LUPIN 843 853 863 875 833 20-12-18 862 13300.00 More
17-12-18 Buy OBC 89 92 93 99 87 18-12-18 94 30000.00 More
17-12-18 Buy ICICI PRU 313 323 328 333 308 17-12-18 325.95 16835.00 More
17-12-18 Buy VOLTAS 576 583 590 593 568 17-12-18 568 -8000.00 More
14-12-18 Buy RELIANCE CAPITAL 224 230 235 250 210 20-12-18 222 -3000.00 More
14-12-18 Buy CESC 706 716 721 727 696 17-12-18 696 -5500.00 More
14-12-18 Buy TITAN 940 953 955 963 933 14-12-18 933 -5250.00 More
13-12-18 Buy VOLTAS 568 573 575 581 563 13-12-18 563 -5000.00 More
13-12-18 Buy MARICO 374 385 390 395 365 19-12-18 393 49400.00 More
12-12-18 Buy OBC 89 91 93 97 87 13-12-18 91 12000.00 More
12-12-18 Sell Nifty 10657 10610 10575 10550 10710 12-12-18 10710 -7950.00 More
12-12-18 Sell BANK NIFTY 26510 26425 26400 26300 26610 12-12-18 26610 -4000.00 More
12-12-18 Buy CADILLA 350 360 370 375 340 13-12-18 358 12800.00 More
12-12-18 Buy SUN PHARMA 431 437 443 460 424 13-12-18 424 -7700.00 More
12-12-18 Buy WOCKHARDT 502 520 530 566 480 17-12-18 537 31500.00 More
11-12-18 Buy RELIANCE 1097 1108 1115 1128 1085 13-12-18 1128 15500.00 More
11-12-18 Sell RELIANCE INFRA 296 292 288 285 300 11-12-18 292 5200.00 More
11-12-18 Sell HCL TECH 943 932 930 925 951 11-12-18 951 -5600.00 More
10-12-18 Sell MARUTI 7305 7250 7225 7200 7352 10-12-18 7352 -3525.00 More
10-12-18 Sell LT 1380 1360 1350 1340 1401 10-12-18 1361 14250.00 More
07-12-18 Buy LUPIN 842 852 862 872 832 07-12-18 843 700.00 More
07-12-18 Sell AXIS BANK 600 595 590 585 607 07-12-18 595 6000.00 More
07-12-18 Sell INDIGO 1022 1008 998 988 1032 07-12-18 1010 7200.00 More
06-12-18 Sell SUNTV 575 567 565 560 579 06-12-18 579 -4000.00 More
06-12-18 Sell JUST DIAL 471 466 462 460 476 06-12-18 460 15400.00 More
06-12-18 Sell BHARAT FOIRG 520 515 512 510 525 06-12-18 515 6000.00 More
05-12-18 Sell INDIGO 1014 10003 998 993 1023 06-12-18 993 12600.00 More
05-12-18 Buy AURO PHARMA 820 832 845 860 800 05-12-18 800 -20000.00 More
05-12-18 Buy TCS 2002 2016 2025 2035 1990 05-12-18 2000 -500.00 More
04-12-18 Buy COLGATE 1236 1246 1256 1266 1224 04-12-18 1248 8400.00 More
04-12-18 Sell INDIGO 996 980 970 950 1020 04-12-18 1002 -3600.00 More
03-12-18 Buy BALKRISHNA IND 955 980 1000 1020 929 04-12-18 948 -5600.00 More
30-11-18 Sell Nifty 10930 10875 10850 10800 11000 30-11-18 10855 11250.00 More
30-11-18 Sell BANK NIFTY 26950 26875 26800 26700 27100 30-11-18 26850 4000.00 More
30-11-18 Buy Havells India 687 697 707 709 677 30-11-18 687 0.00 More
29-11-18 Buy TATA STEEL 536 542 544 546 529 30-11-18 529 -7427.00 More
Page wise profit 294778.00 Rs
Profit 25633977.00 Rs
TRIAL

TRIAL

SEND SMS FOR TRIAL

EQUITY - COMMODITY OR BOTH

TO

 09920033678

AND GET TRIAL